createdAt,value
2018-10-06T00:01:28.964Z,15.18
2018-10-06T00:04:03.688Z,15.04
2018-10-06T00:06:38.164Z,14.96
2018-10-06T00:09:12.674Z,15.02
2018-10-06T00:11:47.316Z,14.96
2018-10-06T00:14:21.964Z,14.97
2018-10-06T00:16:56.564Z,15.08
2018-10-06T00:19:31.254Z,15.01
2018-10-06T00:22:05.809Z,15.10
2018-10-06T00:24:40.456Z,15.12
2018-10-06T00:27:15.211Z,15.09
2018-10-06T00:29:49.795Z,15.12
2018-10-06T00:32:24.509Z,15.15
2018-10-06T00:34:59.109Z,15.10
2018-10-06T00:37:33.544Z,15.21
2018-10-06T00:40:08.220Z,15.11
2018-10-06T00:42:42.700Z,15.12
2018-10-06T00:45:17.301Z,15.19
2018-10-06T00:47:52.662Z,15.13
2018-10-06T00:50:27.277Z,15.02
2018-10-06T00:53:01.854Z,15.05
2018-10-06T00:55:36.341Z,14.98
2018-10-06T00:58:11.028Z,14.93
2018-10-06T01:00:45.537Z,14.90
2018-10-06T01:03:20.313Z,14.85
2018-10-06T01:05:55.125Z,14.86
2018-10-06T01:08:29.933Z,14.90
2018-10-06T01:11:04.530Z,14.91
2018-10-06T01:13:39.115Z,14.86
2018-10-06T01:16:13.749Z,14.90
2018-10-06T01:18:48.468Z,14.85
2018-10-06T01:21:23.437Z,14.95
2018-10-06T01:23:58.042Z,14.84
2018-10-06T01:26:33.024Z,14.91
2018-10-06T01:29:07.429Z,14.85
2018-10-06T01:31:42.592Z,14.74
2018-10-06T01:34:17.316Z,14.82
2018-10-06T01:36:51.877Z,14.81
2018-10-06T01:39:26.727Z,14.77
2018-10-06T01:42:01.760Z,14.72
2018-10-06T01:44:36.288Z,14.71
2018-10-06T01:47:10.863Z,14.68
2018-10-06T01:49:45.792Z,14.56
2018-10-06T01:52:20.340Z,14.52
2018-10-06T01:54:55.831Z,14.54
2018-10-06T01:57:31.016Z,14.53
2018-10-06T02:00:06.134Z,14.56
2018-10-06T02:02:41.345Z,14.54
2018-10-06T02:05:15.812Z,14.53
2018-10-06T02:07:50.411Z,14.52
2018-10-06T02:10:24.984Z,14.44
2018-10-06T02:12:59.858Z,14.48
2018-10-06T02:15:38.406Z,14.43
2018-10-06T02:18:13.487Z,14.39
2018-10-06T02:20:48.434Z,14.35
2018-10-06T02:23:23.202Z,14.34
2018-10-06T02:25:58.410Z,14.39
2018-10-06T02:28:33.737Z,14.39
2018-10-06T02:31:08.396Z,14.38
2018-10-06T02:33:43.166Z,14.38
2018-10-06T02:36:17.821Z,14.37
2018-10-06T02:38:52.284Z,14.32
2018-10-06T02:41:27.213Z,14.33
2018-10-06T02:44:02.384Z,14.30
2018-10-06T02:46:37.101Z,14.33
2018-10-06T02:49:12.340Z,14.42
2018-10-06T02:51:46.945Z,14.34
2018-10-06T02:54:21.629Z,14.33
2018-10-06T02:56:56.764Z,14.42
2018-10-06T02:59:31.276Z,14.35
2018-10-06T03:02:05.979Z,14.33
2018-10-06T03:04:40.804Z,14.32
2018-10-06T03:07:15.992Z,14.23
2018-10-06T03:09:50.395Z,14.28
2018-10-06T03:12:25.126Z,14.30
2018-10-06T03:14:59.989Z,14.24
2018-10-06T03:17:34.612Z,14.24
2018-10-06T03:20:09.166Z,14.22
2018-10-06T03:22:43.737Z,14.28
2018-10-06T03:25:18.335Z,14.21
2018-10-06T03:27:53.447Z,14.20
2018-10-06T03:30:28.684Z,14.06
2018-10-06T03:33:03.458Z,14.08
2018-10-06T03:35:38.074Z,14.16
2018-10-06T03:38:13.025Z,14.13
2018-10-06T03:40:47.574Z,14.19
2018-10-06T03:43:22.124Z,14.17
2018-10-06T03:45:57.020Z,14.18
2018-10-06T03:48:31.949Z,14.25
2018-10-06T03:51:06.861Z,14.29
2018-10-06T03:53:41.313Z,14.17
2018-10-06T03:56:15.757Z,14.10
2018-10-06T03:58:50.345Z,14.23
2018-10-06T04:01:24.763Z,14.21
2018-10-06T04:03:59.188Z,14.13
2018-10-06T04:06:33.920Z,14.16
2018-10-06T04:09:08.873Z,14.19
2018-10-06T04:11:43.405Z,14.16
2018-10-06T04:14:17.952Z,14.15
2018-10-06T04:16:52.418Z,14.14
2018-10-06T04:19:27.002Z,14.15
2018-10-06T04:22:01.592Z,14.11
2018-10-06T04:24:36.216Z,14.09
2018-10-06T04:27:10.910Z,14.00
2018-10-06T04:29:45.751Z,14.01
2018-10-06T04:32:20.713Z,13.91
2018-10-06T04:34:55.407Z,13.92
2018-10-06T04:37:30.299Z,13.90
2018-10-06T04:40:04.920Z,14.10
2018-10-06T04:42:40.222Z,14.21
2018-10-06T04:45:14.971Z,14.17
2018-10-06T04:47:49.932Z,14.27
2018-10-06T04:50:25.255Z,14.20
2018-10-06T04:52:59.743Z,14.21
2018-10-06T04:55:34.570Z,14.19
2018-10-06T04:58:09.513Z,14.10
2018-10-06T05:00:44.035Z,13.94
2018-10-06T05:03:18.657Z,13.83
2018-10-06T05:05:53.339Z,13.84
2018-10-06T05:08:28.178Z,13.81
2018-10-06T05:11:03.039Z,13.93
2018-10-06T05:13:37.684Z,13.94
2018-10-06T05:16:12.336Z,13.86
2018-10-06T05:18:47.130Z,13.86
2018-10-06T05:21:21.896Z,13.87
2018-10-06T05:23:56.636Z,13.91
2018-10-06T05:26:31.273Z,13.89
2018-10-06T05:29:06.132Z,14.00
2018-10-06T05:31:40.595Z,14.04
2018-10-06T05:34:15.531Z,13.97
2018-10-06T05:36:50.651Z,14.01
2018-10-06T05:39:25.128Z,13.94
2018-10-06T05:42:00.042Z,13.98
2018-10-06T05:44:34.468Z,14.03
2018-10-06T05:47:09.074Z,13.99
2018-10-06T05:49:43.721Z,13.93
2018-10-06T05:52:18.229Z,13.95
2018-10-06T05:54:52.880Z,14.04
2018-10-06T05:57:27.584Z,13.96
2018-10-06T06:00:02.231Z,14.03
2018-10-06T06:02:36.754Z,14.01
2018-10-06T06:05:14.223Z,14.00
2018-10-06T06:07:48.794Z,14.08
2018-10-06T06:10:45.883Z,14.14
2018-10-06T06:13:20.656Z,14.18
2018-10-06T06:15:55.899Z,14.31
2018-10-06T06:18:37.710Z,14.36
2018-10-06T06:21:12.367Z,14.41
2018-10-06T06:23:47.027Z,14.45
2018-10-06T06:26:21.880Z,14.36
2018-10-06T06:28:56.739Z,14.49
2018-10-06T06:31:31.342Z,14.63
2018-10-06T06:34:05.857Z,14.69
2018-10-06T06:36:40.373Z,14.88
2018-10-06T06:39:18.783Z,14.93
2018-10-06T06:41:59.001Z,15.07
2018-10-06T06:44:33.899Z,15.01
2018-10-06T06:47:08.551Z,15.17
2018-10-06T06:49:43.252Z,15.11
2018-10-06T06:52:18.111Z,15.25
2018-10-06T06:54:52.755Z,15.28
2018-10-06T06:57:27.351Z,15.42
2018-10-06T07:00:02.051Z,15.48
2018-10-06T07:02:36.698Z,15.93
2018-10-06T07:05:12.630Z,17.45
2018-10-06T07:07:47.425Z,21.08
2018-10-06T07:10:22.271Z,24.37
2018-10-06T07:12:56.704Z,24.93
2018-10-06T07:15:31.225Z,25.20
2018-10-06T07:18:05.946Z,24.20
2018-10-06T07:20:40.688Z,23.52
2018-10-06T07:23:15.500Z,22.84
2018-10-06T07:25:50.490Z,22.21
2018-10-06T07:28:25.903Z,21.80
2018-10-06T07:31:00.667Z,20.88
2018-10-06T07:33:35.451Z,20.91
2018-10-06T07:36:10.380Z,20.86
2018-10-06T07:38:45.433Z,20.87
2018-10-06T07:41:20.382Z,20.60
2018-10-06T07:43:55.207Z,20.35
2018-10-06T07:46:29.855Z,19.91
2018-10-06T07:49:04.758Z,19.59
2018-10-06T07:51:39.670Z,19.11
2018-10-06T07:54:14.063Z,19.12
2018-10-06T07:56:48.714Z,18.95
2018-10-06T07:59:27.067Z,18.91
2018-10-06T08:02:01.923Z,18.95
2018-10-06T08:04:36.741Z,18.99
2018-10-06T08:07:11.393Z,19.04
2018-10-06T08:09:46.079Z,19.48
2018-10-06T08:12:21.761Z,20.06
2018-10-06T08:14:56.566Z,19.98
2018-10-06T08:17:32.316Z,20.04
2018-10-06T08:20:07.498Z,20.11
2018-10-06T08:22:53.574Z,19.79
2018-10-06T08:25:35.712Z,19.69
2018-10-06T08:28:11.095Z,19.69
2018-10-06T08:30:45.574Z,19.58
2018-10-06T08:33:20.912Z,19.47
2018-10-06T08:35:55.624Z,19.57
2018-10-06T08:38:30.632Z,19.82
2018-10-06T08:41:05.181Z,19.87
2018-10-06T08:43:39.745Z,19.88
2018-10-06T08:46:14.312Z,20.13
2018-10-06T08:48:49.327Z,20.26
2018-10-06T08:51:23.927Z,20.18
2018-10-06T08:53:58.458Z,20.39
2018-10-06T08:56:33.222Z,20.59
2018-10-06T08:59:07.824Z,20.70
2018-10-06T09:01:42.264Z,20.69
2018-10-06T09:04:16.747Z,20.85
2018-10-06T09:06:51.765Z,21.21
2018-10-06T09:09:26.286Z,21.24
2018-10-06T09:12:00.793Z,21.19
2018-10-06T09:14:35.716Z,23.28
2018-10-06T09:17:10.501Z,24.50
2018-10-06T09:19:45.853Z,24.53
2018-10-06T09:22:20.496Z,25.13
2018-10-06T09:24:55.024Z,25.33
2018-10-06T09:27:29.741Z,24.55
2018-10-06T09:30:04.426Z,22.88
2018-10-06T09:32:39.035Z,22.07
2018-10-06T09:35:13.628Z,21.67
2018-10-06T09:37:48.144Z,21.54
2018-10-06T09:40:23.040Z,21.60
2018-10-06T09:42:57.732Z,21.46
2018-10-06T09:45:32.330Z,21.36
2018-10-06T09:48:06.929Z,21.39
2018-10-06T09:50:41.711Z,21.50
2018-10-06T09:53:16.330Z,21.58
2018-10-06T09:55:50.877Z,21.64
2018-10-06T09:58:25.869Z,21.38
2018-10-06T10:01:06.306Z,21.75
2018-10-06T10:03:46.096Z,21.77
2018-10-06T10:06:20.708Z,21.85
2018-10-06T10:08:55.184Z,21.89
2018-10-06T10:11:32.094Z,21.98
2018-10-06T10:14:06.998Z,21.92
2018-10-06T10:16:41.531Z,22.08
2018-10-06T10:19:16.228Z,21.99
2018-10-06T10:21:51.470Z,21.82
2018-10-06T10:24:25.805Z,22.15
2018-10-06T10:27:00.661Z,22.33
2018-10-06T10:29:35.227Z,22.11
2018-10-06T10:32:09.961Z,21.91
2018-10-06T10:34:44.605Z,22.44
2018-10-06T10:37:19.381Z,22.46
2018-10-06T10:39:53.754Z,22.07
2018-10-06T10:42:28.485Z,22.47
2018-10-06T10:45:03.068Z,22.23
2018-10-06T10:47:37.564Z,22.36
2018-10-06T10:50:12.543Z,22.35
2018-10-06T10:52:47.044Z,22.82
2018-10-06T10:55:21.824Z,23.00
2018-10-06T10:57:56.383Z,23.13
2018-10-06T11:00:30.848Z,23.12
2018-10-06T11:03:05.493Z,23.26
2018-10-06T11:05:40.284Z,23.16
2018-10-06T11:08:14.668Z,23.44
2018-10-06T11:10:50.990Z,23.58
2018-10-06T11:13:25.983Z,23.53
2018-10-06T11:16:03.986Z,23.73
2018-10-06T11:18:38.821Z,23.83
2018-10-06T11:21:13.634Z,23.82
2018-10-06T11:23:48.772Z,23.99
2018-10-06T11:26:23.225Z,23.91
2018-10-06T11:28:57.745Z,23.91
2018-10-06T11:31:32.992Z,23.88
2018-10-06T11:34:08.777Z,23.66
2018-10-06T11:36:43.648Z,23.96
2018-10-06T11:39:18.232Z,24.00
2018-10-06T11:41:53.104Z,24.22
2018-10-06T11:44:27.768Z,24.12
2018-10-06T11:47:02.335Z,24.11
2018-10-06T11:49:36.860Z,23.92
2018-10-06T11:52:11.344Z,23.84
2018-10-06T11:54:45.956Z,24.31
2018-10-06T11:57:20.744Z,24.19
2018-10-06T11:59:55.595Z,24.32
2018-10-06T12:02:34.637Z,23.72
2018-10-06T12:05:15.453Z,23.96
2018-10-06T12:07:50.229Z,23.95
2018-10-06T12:10:24.717Z,23.81
2018-10-06T12:13:00.388Z,24.27
2018-10-06T12:15:35.313Z,24.31
2018-10-06T12:18:09.947Z,24.36
2018-10-06T12:20:44.462Z,24.37
2018-10-06T12:23:19.181Z,24.32
2018-10-06T12:25:53.727Z,24.27
2018-10-06T12:28:28.260Z,24.55
2018-10-06T12:31:02.960Z,24.74
2018-10-06T12:33:37.873Z,24.87
2018-10-06T12:36:12.522Z,24.52
2018-10-06T12:38:47.136Z,24.79
2018-10-06T12:41:21.909Z,24.76
2018-10-06T12:43:56.403Z,24.77
2018-10-06T12:46:30.766Z,24.83
2018-10-06T12:49:05.610Z,25.03
2018-10-06T12:51:40.519Z,25.14
2018-10-06T12:54:15.552Z,25.09
2018-10-06T12:56:50.262Z,25.01
2018-10-06T12:59:24.916Z,24.93
2018-10-06T13:01:59.519Z,24.98
2018-10-06T13:04:34.413Z,25.24
2018-10-06T13:07:09.037Z,25.09
2018-10-06T13:09:43.864Z,25.16
2018-10-06T13:12:18.546Z,24.59
2018-10-06T13:14:53.425Z,25.00
2018-10-06T13:17:28.631Z,25.19
2018-10-06T13:20:03.630Z,25.41
2018-10-06T13:22:38.141Z,25.42
2018-10-06T13:25:13.021Z,25.48
2018-10-06T13:27:47.563Z,25.57
2018-10-06T13:30:22.497Z,25.57
2018-10-06T13:32:57.446Z,25.50
2018-10-06T13:35:32.604Z,25.12
2018-10-06T13:38:07.616Z,25.06
2018-10-06T13:40:42.032Z,25.31
2018-10-06T13:43:16.663Z,25.34
2018-10-06T13:45:51.228Z,25.04
2018-10-06T13:48:26.639Z,25.14
2018-10-06T13:51:01.270Z,25.13
2018-10-06T13:53:35.639Z,25.42
2018-10-06T13:56:10.767Z,25.55
2018-10-06T13:58:45.293Z,25.57
2018-10-06T14:01:20.012Z,25.36
2018-10-06T14:03:54.890Z,25.45
2018-10-06T14:06:29.738Z,25.50
2018-10-06T14:09:04.800Z,25.64
2018-10-06T14:11:39.208Z,25.37
2018-10-06T14:14:13.598Z,25.36
2018-10-06T14:16:48.193Z,25.43
2018-10-06T14:19:23.044Z,25.46
2018-10-06T14:21:57.672Z,25.49
2018-10-06T14:24:32.301Z,25.55
2018-10-06T14:27:07.193Z,25.69
2018-10-06T14:29:41.813Z,25.53
2018-10-06T14:32:16.443Z,25.74
2018-10-06T14:34:51.076Z,25.89
2018-10-06T14:37:25.472Z,25.90
2018-10-06T14:40:00.298Z,25.82
2018-10-06T14:42:34.748Z,25.70
2018-10-06T14:45:09.186Z,25.54
2018-10-06T14:47:43.750Z,25.49
2018-10-06T14:50:18.294Z,25.27
2018-10-06T14:52:53.196Z,25.32
2018-10-06T14:55:31.242Z,25.31
2018-10-06T14:58:06.028Z,25.18
2018-10-06T15:00:41.624Z,25.00
2018-10-06T15:03:16.833Z,25.08
2018-10-06T15:05:51.376Z,25.08
2018-10-06T15:08:26.852Z,25.24
2018-10-06T15:11:01.323Z,24.98
2018-10-06T15:13:35.925Z,25.13
2018-10-06T15:16:10.904Z,24.87
2018-10-06T15:18:45.797Z,25.17
2018-10-06T15:21:20.437Z,24.83
2018-10-06T15:23:54.946Z,25.00
2018-10-06T15:26:29.533Z,24.83
2018-10-06T15:29:04.200Z,24.68
2018-10-06T15:31:39.040Z,24.50
2018-10-06T15:34:13.575Z,24.40
2018-10-06T15:36:48.207Z,24.22
2018-10-06T15:39:22.724Z,24.33
2018-10-06T15:41:57.276Z,24.29
2018-10-06T15:44:32.167Z,24.36
2018-10-06T15:47:06.625Z,24.36
2018-10-06T15:49:41.097Z,24.39
2018-10-06T15:52:15.946Z,24.41
2018-10-06T15:57:47.368Z,24.10
2018-10-06T16:03:21.940Z,23.99
2018-10-06T16:05:56.588Z,23.94
2018-10-06T16:08:31.093Z,24.01
2018-10-06T16:11:05.528Z,23.82
2018-10-06T16:13:40.141Z,23.58
2018-10-06T16:16:14.560Z,23.59
2018-10-06T16:19:03.964Z,23.49
2018-10-06T16:21:38.661Z,23.34
2018-10-06T16:24:13.141Z,23.29
2018-10-06T16:26:47.758Z,23.27
2018-10-06T16:29:22.400Z,23.23
2018-10-06T16:31:56.969Z,23.08
2018-10-06T16:34:37.020Z,23.16
2018-10-06T16:37:11.920Z,23.05
2018-10-06T16:39:46.770Z,22.80
2018-10-06T16:42:21.264Z,22.72
2018-10-06T16:44:55.916Z,22.47
2018-10-06T16:47:30.527Z,22.48
2018-10-06T16:50:05.084Z,22.52
2018-10-06T16:52:39.733Z,22.43
2018-10-06T16:55:14.324Z,22.41
2018-10-06T16:57:48.808Z,22.43
2018-10-06T17:00:24.093Z,22.42
2018-10-06T17:02:58.609Z,22.30
2018-10-06T17:05:33.205Z,22.30
2018-10-06T17:08:08.399Z,22.28
2018-10-06T17:10:42.867Z,22.17
2018-10-06T17:13:17.452Z,22.05
2018-10-06T17:15:52.713Z,22.11
2018-10-06T17:18:27.363Z,21.94
2018-10-06T17:21:01.964Z,21.97
2018-10-06T17:23:36.525Z,21.97
2018-10-06T17:26:11.006Z,22.06
2018-10-06T17:28:46.169Z,22.16
2018-10-06T17:31:20.652Z,22.18
2018-10-06T17:33:55.358Z,22.26
2018-10-06T17:36:31.220Z,22.33
2018-10-06T17:39:07.825Z,22.32
2018-10-06T17:41:42.579Z,22.28
2018-10-06T17:44:23.018Z,22.20
2018-10-06T17:46:57.752Z,21.99
2018-10-06T17:49:32.932Z,21.97
2018-10-06T17:52:08.200Z,21.69
2018-10-06T17:54:42.968Z,21.70
2018-10-06T17:57:17.576Z,21.57
2018-10-06T17:59:52.285Z,21.46
2018-10-06T18:02:27.090Z,21.35
2018-10-06T18:05:01.721Z,21.19
2018-10-06T18:07:36.393Z,21.13
2018-10-06T18:10:11.164Z,20.91
2018-10-06T18:12:46.215Z,20.62
2018-10-06T18:15:20.750Z,20.34
2018-10-06T18:17:55.704Z,20.41
2018-10-06T18:20:30.483Z,20.28
2018-10-06T18:23:04.832Z,20.31
2018-10-06T18:25:39.680Z,20.24
2018-10-06T18:28:14.753Z,20.24
2018-10-06T18:30:49.293Z,20.27
2018-10-06T18:33:23.946Z,20.21
2018-10-06T18:35:58.470Z,20.19
2018-10-06T18:38:33.169Z,20.14
2018-10-06T18:44:17.180Z,20.21
2018-10-06T18:46:51.772Z,20.10
2018-10-06T18:49:26.456Z,20.11
2018-10-06T18:52:00.885Z,20.07
2018-10-06T18:54:35.429Z,19.96
2018-10-06T18:57:09.870Z,19.88
2018-10-06T18:59:44.516Z,19.87
2018-10-06T19:02:19.132Z,19.84
2018-10-06T19:04:54.074Z,19.73
2018-10-06T19:07:28.764Z,19.73
2018-10-06T19:10:03.335Z,19.62
2018-10-06T19:12:37.924Z,19.61
2018-10-06T19:15:12.473Z,19.52
2018-10-06T19:17:47.053Z,19.54
2018-10-06T19:20:21.562Z,19.44
2018-10-06T19:22:56.259Z,19.37
2018-10-06T19:25:30.928Z,19.36
2018-10-06T19:28:05.473Z,19.42
2018-10-06T19:30:40.151Z,19.45
2018-10-06T19:33:14.808Z,19.45
2018-10-06T19:35:49.484Z,19.54
2018-10-06T19:38:24.225Z,19.50
2018-10-06T19:40:59.039Z,19.45
2018-10-06T19:43:34.012Z,19.38
2018-10-06T19:46:08.645Z,19.42
2018-10-06T19:48:43.109Z,19.42
2018-10-06T19:51:17.656Z,19.34
2018-10-06T19:53:52.398Z,19.30
2018-10-06T19:56:27.040Z,19.24
2018-10-06T19:59:01.708Z,19.09
2018-10-06T20:01:36.405Z,19.03
2018-10-06T20:04:10.935Z,18.94
2018-10-06T20:06:45.521Z,19.04
2018-10-06T20:09:20.053Z,19.05
2018-10-06T20:11:54.726Z,19.00
2018-10-06T20:14:29.241Z,18.92
2018-10-06T20:17:03.674Z,18.86
2018-10-06T20:19:38.667Z,18.82
2018-10-06T20:22:13.424Z,18.84
2018-10-06T20:24:48.388Z,18.82
2018-10-06T20:27:22.952Z,18.83
2018-10-06T20:29:57.677Z,18.78
2018-10-06T20:32:32.598Z,18.72
2018-10-06T20:35:07.270Z,18.65
2018-10-06T20:37:41.913Z,18.54
2018-10-06T20:40:16.896Z,18.41
2018-10-06T20:42:51.368Z,18.23
2018-10-06T20:45:26.104Z,18.04
2018-10-06T20:48:00.802Z,17.92
2018-10-06T20:50:35.407Z,17.80
2018-10-06T20:53:09.986Z,17.62
2018-10-06T20:55:44.835Z,17.51
2018-10-06T20:58:19.504Z,17.43
2018-10-06T21:00:54.149Z,17.36
2018-10-06T21:03:28.712Z,17.34
2018-10-06T21:06:04.089Z,17.35
2018-10-06T21:08:38.984Z,17.53
2018-10-06T21:11:14.018Z,17.68
2018-10-06T21:14:02.490Z,17.74
2018-10-06T21:16:37.707Z,17.72
2018-10-06T21:19:12.348Z,17.70
2018-10-06T21:21:47.052Z,17.66
2018-10-06T21:24:21.673Z,17.61
2018-10-06T21:26:56.117Z,17.49
2018-10-06T21:29:30.857Z,17.53
2018-10-06T21:32:05.329Z,17.49
2018-10-06T21:34:40.373Z,17.45
2018-10-06T21:37:27.959Z,17.53
2018-10-06T21:40:02.554Z,17.59
2018-10-06T21:42:46.663Z,17.50
2018-10-06T21:45:21.164Z,17.56
2018-10-06T21:48:02.336Z,17.49
2018-10-06T21:50:50.806Z,17.51
2018-10-06T21:53:25.477Z,17.47
2018-10-06T21:56:00.023Z,17.47
2018-10-06T21:58:34.456Z,17.49
2018-10-06T22:01:11.665Z,17.31
2018-10-06T22:03:46.789Z,16.93
2018-10-06T22:06:22.688Z,16.73
2018-10-06T22:08:57.659Z,16.64
2018-10-06T22:11:32.392Z,16.38
2018-10-06T22:14:06.931Z,16.34
2018-10-06T22:16:41.728Z,16.07
2018-10-06T22:19:17.139Z,16.19
2018-10-06T22:21:51.765Z,16.14
2018-10-06T22:24:26.510Z,16.02
2018-10-06T22:27:01.398Z,15.89
2018-10-06T22:29:36.167Z,15.79
2018-10-06T22:35:10.919Z,15.73
2018-10-06T22:37:45.861Z,15.71
2018-10-06T22:40:20.347Z,15.74
2018-10-06T22:42:55.092Z,15.61
2018-10-06T22:45:39.410Z,16.03
2018-10-06T22:48:14.755Z,16.25
2018-10-06T22:50:49.214Z,16.30
2018-10-06T22:53:23.755Z,16.38
2018-10-06T22:55:58.232Z,16.37
2018-10-06T22:58:32.783Z,16.42
2018-10-06T23:01:07.415Z,16.44
2018-10-06T23:03:42.014Z,16.36
2018-10-06T23:06:16.778Z,16.34
2018-10-06T23:08:51.479Z,16.42
2018-10-06T23:11:25.962Z,16.46
2018-10-06T23:14:00.451Z,16.49
2018-10-06T23:16:35.361Z,16.38
2018-10-06T23:19:10.013Z,16.53
2018-10-06T23:21:44.720Z,16.62
2018-10-06T23:24:19.428Z,16.65
2018-10-06T23:26:54.216Z,16.58
2018-10-06T23:29:29.958Z,16.59
2018-10-06T23:32:05.026Z,16.59
2018-10-06T23:34:39.704Z,16.63
2018-10-06T23:37:14.495Z,16.64
2018-10-06T23:39:49.135Z,16.71
2018-10-06T23:42:23.823Z,16.73
2018-10-06T23:45:17.548Z,16.74
2018-10-06T23:50:58.388Z,16.76
2018-10-06T23:53:32.993Z,16.72
2018-10-06T23:56:07.664Z,16.71
2018-10-06T23:58:42.154Z,16.64
